Terminal Aerodrome Forecast
Issued by NWS Northern Indiana

Home | Current Version | Previous Version | Graphics & Text | Print | Product List | Glossary On
Versions: 1 2 3 4 5 6 7 8 9 10 11 12 13 14 15 16 17
231
FTUS43 KIWX 171720
TAFFWA
TAF
KFWA 171720Z 1718/1818 27016G25KT P6SM SCT030 BKN040
     FM180000 32008KT P6SM SCT050
     FM180300 VRB04KT P6SM FEW200
     FM181500 11009KT P6SM BKN120=

USA.gov is the U.S. government's official web portal to all federal, state and local government web resources and services.